sensor_id;sensor_type;location;lat;lon;timestamp;temperature;humidity
15656;DHT22;7928;43.614;1.456;2022-11-03T00:01:15;15.00;20.80
15656;DHT22;7928;43.614;1.456;2022-11-03T00:03:42;15.00;21.90
15656;DHT22;7928;43.614;1.456;2022-11-03T00:06:09;14.90;27.90
15656;DHT22;7928;43.614;1.456;2022-11-03T00:08:37;14.80;31.60
15656;DHT22;7928;43.614;1.456;2022-11-03T00:11:06;14.80;32.70
15656;DHT22;7928;43.614;1.456;2022-11-03T00:13:34;14.70;33.40
15656;DHT22;7928;43.614;1.456;2022-11-03T00:16:02;14.70;33.30
15656;DHT22;7928;43.614;1.456;2022-11-03T00:18:30;14.70;33.80
15656;DHT22;7928;43.614;1.456;2022-11-03T00:20:58;14.70;33.20
15656;DHT22;7928;43.614;1.456;2022-11-03T00:23:27;14.70;30.40
15656;DHT22;7928;43.614;1.456;2022-11-03T00:25:55;14.60;30.30
15656;DHT22;7928;43.614;1.456;2022-11-03T00:28:22;14.60;32.80
15656;DHT22;7928;43.614;1.456;2022-11-03T00:30:49;14.60;31.40
15656;DHT22;7928;43.614;1.456;2022-11-03T00:33:16;14.60;29.60
15656;DHT22;7928;43.614;1.456;2022-11-03T00:35:44;14.50;30.20
15656;DHT22;7928;43.614;1.456;2022-11-03T00:38:11;14.60;29.70
15656;DHT22;7928;43.614;1.456;2022-11-03T00:40:38;14.60;26.50
15656;DHT22;7928;43.614;1.456;2022-11-03T00:43:05;14.50;27.30
15656;DHT22;7928;43.614;1.456;2022-11-03T00:45:32;14.50;26.10
15656;DHT22;7928;43.614;1.456;2022-11-03T00:47:59;14.60;25.00
15656;DHT22;7928;43.614;1.456;2022-11-03T00:50:45;14.60;25.10
15656;DHT22;7928;43.614;1.456;2022-11-03T00:53:12;14.50;27.50
15656;DHT22;7928;43.614;1.456;2022-11-03T00:55:39;14.50;26.30
15656;DHT22;7928;43.614;1.456;2022-11-03T00:58:06;14.60;27.30
15656;DHT22;7928;43.614;1.456;2022-11-03T01:00:33;14.60;24.30
15656;DHT22;7928;43.614;1.456;2022-11-03T01:03:00;14.60;24.30
15656;DHT22;7928;43.614;1.456;2022-11-03T01:05:27;14.70;23.50
15656;DHT22;7928;43.614;1.456;2022-11-03T01:08:18;14.80;27.20
15656;DHT22;7928;43.614;1.456;2022-11-03T01:10:45;14.80;34.30
15656;DHT22;7928;43.614;1.456;2022-11-03T01:13:26;14.80;46.00
15656;DHT22;7928;43.614;1.456;2022-11-03T01:15:56;14.90;51.50
15656;DHT22;7928;43.614;1.456;2022-11-03T01:18:23;14.80;58.50
15656;DHT22;7928;43.614;1.456;2022-11-03T01:20:54;14.80;61.70
15656;DHT22;7928;43.614;1.456;2022-11-03T01:23:23;14.80;64.10
15656;DHT22;7928;43.614;1.456;2022-11-03T01:25:50;14.80;64.10
15656;DHT22;7928;43.614;1.456;2022-11-03T01:28:17;14.70;65.40
15656;DHT22;7928;43.614;1.456;2022-11-03T01:30:44;14.70;71.30
15656;DHT22;7928;43.614;1.456;2022-11-03T01:33:11;14.70;75.30
15656;DHT22;7928;43.614;1.456;2022-11-03T01:35:39;14.60;81.10
15656;DHT22;7928;43.614;1.456;2022-11-03T01:38:06;14.60;88.40
15656;DHT22;7928;43.614;1.456;2022-11-03T01:40:35;14.50;92.10
15656;DHT22;7928;43.614;1.456;2022-11-03T01:43:15;14.50;96.60
15656;DHT22;7928;43.614;1.456;2022-11-03T01:45:42;14.50;99.90
15656;DHT22;7928;43.614;1.456;2022-11-03T01:48:10;14.40;99.90
15656;DHT22;7928;43.614;1.456;2022-11-03T01:50:40;14.50;99.90
15656;DHT22;7928;43.614;1.456;2022-11-03T01:53:10;14.50;99.90
15656;DHT22;7928;43.614;1.456;2022-11-03T01:55:39;14.40;99.90
15656;DHT22;7928;43.614;1.456;2022-11-03T01:58:10;14.50;99.90
15656;DHT22;7928;43.614;1.456;2022-11-03T02:00:41;14.50;99.90
15656;DHT22;7928;43.614;1.456;2022-11-03T02:03:08;14.50;99.90
15656;DHT22;7928;43.614;1.456;2022-11-03T02:05:36;14.50;99.90
15656;DHT22;7928;43.614;1.456;2022-11-03T02:08:07;14.60;99.90
15656;DHT22;7928;43.614;1.456;2022-11-03T02:10:36;14.60;99.90
15656;DHT22;7928;43.614;1.456;2022-11-03T02:13:11;14.60;99.90
15656;DHT22;7928;43.614;1.456;2022-11-03T02:15:42;14.70;99.90
15656;DHT22;7928;43.614;1.456;2022-11-03T02:18:10;14.70;99.90
15656;DHT22;7928;43.614;1.456;2022-11-03T02:20:39;14.80;99.90
15656;DHT22;7928;43.614;1.456;2022-11-03T02:23:24;14.80;99.90
15656;DHT22;7928;43.614;1.456;2022-11-03T02:25:54;14.80;99.90
15656;DHT22;7928;43.614;1.456;2022-11-03T02:28:23;14.80;99.90
15656;DHT22;7928;43.614;1.456;2022-11-03T02:30:58;14.80;99.90
15656;DHT22;7928;43.614;1.456;2022-11-03T02:33:34;14.80;99.90
15656;DHT22;7928;43.614;1.456;2022-11-03T02:36:08;14.90;99.90
15656;DHT22;7928;43.614;1.456;2022-11-03T02:38:43;14.90;99.90
15656;DHT22;7928;43.614;1.456;2022-11-03T02:41:14;14.90;99.90
15656;DHT22;7928;43.614;1.456;2022-11-03T02:43:43;14.90;99.90
15656;DHT22;7928;43.614;1.456;2022-11-03T02:46:11;14.90;99.90
15656;DHT22;7928;43.614;1.456;2022-11-03T02:48:40;14.90;99.90
15656;DHT22;7928;43.614;1.456;2022-11-03T02:51:12;15.00;99.90
15656;DHT22;7928;43.614;1.456;2022-11-03T02:53:43;15.00;99.90
15656;DHT22;7928;43.614;1.456;2022-11-03T02:56:16;15.00;99.90
15656;DHT22;7928;43.614;1.456;2022-11-03T02:58:50;15.00;99.90
15656;DHT22;7928;43.614;1.456;2022-11-03T03:01:23;15.10;99.90
15656;DHT22;7928;43.614;1.456;2022-11-03T03:03:54;15.10;99.90
15656;DHT22;7928;43.614;1.456;2022-11-03T03:06:25;15.10;99.90
15656;DHT22;7928;43.614;1.456;2022-11-03T03:08:56;15.00;99.90
15656;DHT22;7928;43.614;1.456;2022-11-03T03:11:26;15.00;99.90
15656;DHT22;7928;43.614;1.456;2022-11-03T03:14:08;15.00;99.90
15656;DHT22;7928;43.614;1.456;2022-11-03T03:16:42;15.10;99.90
15656;DHT22;7928;43.614;1.456;2022-11-03T03:19:19;15.10;99.90
15656;DHT22;7928;43.614;1.456;2022-11-03T03:21:51;15.10;99.90
15656;DHT22;7928;43.614;1.456;2022-11-03T03:24:26;15.10;99.90
15656;DHT22;7928;43.614;1.456;2022-11-03T03:27:00;15.10;99.90
15656;DHT22;7928;43.614;1.456;2022-11-03T03:29:33;15.10;99.90
15656;DHT22;7928;43.614;1.456;2022-11-03T03:32:06;15.10;99.90
15656;DHT22;7928;43.614;1.456;2022-11-03T03:34:37;15.10;99.90
15656;DHT22;7928;43.614;1.456;2022-11-03T03:37:06;15.10;99.90
15656;DHT22;7928;43.614;1.456;2022-11-03T03:39:36;15.10;99.90
15656;DHT22;7928;43.614;1.456;2022-11-03T03:42:07;15.10;99.90
15656;DHT22;7928;43.614;1.456;2022-11-03T03:44:37;15.10;99.90
15656;DHT22;7928;43.614;1.456;2022-11-03T03:47:08;15.10;99.90
15656;DHT22;7928;43.614;1.456;2022-11-03T03:49:37;15.00;99.90
15656;DHT22;7928;43.614;1.456;2022-11-03T03:52:04;15.10;99.90
15656;DHT22;7928;43.614;1.456;2022-11-03T03:54:31;15.10;99.90
15656;DHT22;7928;43.614;1.456;2022-11-03T03:57:00;15.00;99.90
15656;DHT22;7928;43.614;1.456;2022-11-03T03:59:30;15.00;99.90
15656;DHT22;7928;43.614;1.456;2022-11-03T04:01:57;15.00;99.90
15656;DHT22;7928;43.614;1.456;2022-11-03T04:04:24;15.00;99.90
15656;DHT22;7928;43.614;1.456;2022-11-03T04:06:51;15.00;99.90
15656;DHT22;7928;43.614;1.456;2022-11-03T04:09:38;15.00;99.90
15656;DHT22;7928;43.614;1.456;2022-11-03T04:12:07;15.00;99.90
15656;DHT22;7928;43.614;1.456;2022-11-03T04:14:53;15.00;99.90
15656;DHT22;7928;43.614;1.456;2022-11-03T04:17:39;15.10;99.90
15656;DHT22;7928;43.614;1.456;2022-11-03T04:20:25;15.10;99.90
15656;DHT22;7928;43.614;1.456;2022-11-03T04:23:10;15.10;99.90
15656;DHT22;7928;43.614;1.456;2022-11-03T04:25:37;15.00;99.90
15656;DHT22;7928;43.614;1.456;2022-11-03T04:28:08;15.10;99.90
15656;DHT22;7928;43.614;1.456;2022-11-03T04:30:37;15.10;99.90
15656;DHT22;7928;43.614;1.456;2022-11-03T04:33:12;15.10;99.90
15656;DHT22;7928;43.614;1.456;2022-11-03T04:35:39;15.10;99.90
15656;DHT22;7928;43.614;1.456;2022-11-03T04:38:19;15.10;99.90
15656;DHT22;7928;43.614;1.456;2022-11-03T04:40:51;15.10;99.90
15656;DHT22;7928;43.614;1.456;2022-11-03T04:43:19;15.10;99.90
15656;DHT22;7928;43.614;1.456;2022-11-03T04:45:48;15.10;99.90
15656;DHT22;7928;43.614;1.456;2022-11-03T04:48:18;15.10;99.90
15656;DHT22;7928;43.614;1.456;2022-11-03T04:50:46;15.10;99.90
15656;DHT22;7928;43.614;1.456;2022-11-03T04:53:15;15.20;99.90
15656;DHT22;7928;43.614;1.456;2022-11-03T04:55:44;15.20;99.90
15656;DHT22;7928;43.614;1.456;2022-11-03T04:58:17;15.20;99.90
15656;DHT22;7928;43.614;1.456;2022-11-03T05:00:45;15.20;99.90
15656;DHT22;7928;43.614;1.456;2022-11-03T05:03:19;15.30;99.90
15656;DHT22;7928;43.614;1.456;2022-11-03T05:05:47;15.30;99.90
15656;DHT22;7928;43.614;1.456;2022-11-03T05:08:15;15.30;99.90
15656;DHT22;7928;43.614;1.456;2022-11-03T05:10:43;15.30;99.90
15656;DHT22;7928;43.614;1.456;2022-11-03T05:13:16;15.30;99.90
15656;DHT22;7928;43.614;1.456;2022-11-03T05:15:44;15.30;99.90
15656;DHT22;7928;43.614;1.456;2022-11-03T05:18:17;15.40;99.90
15656;DHT22;7928;43.614;1.456;2022-11-03T05:20:49;15.30;99.90
15656;DHT22;7928;43.614;1.456;2022-11-03T05:23:18;15.40;99.90
15656;DHT22;7928;43.614;1.456;2022-11-03T05:25:47;15.30;99.90
15656;DHT22;7928;43.614;1.456;2022-11-03T05:28:21;15.30;99.90
15656;DHT22;7928;43.614;1.456;2022-11-03T05:30:49;15.30;99.90
15656;DHT22;7928;43.614;1.456;2022-11-03T05:33:26;15.30;99.90
15656;DHT22;7928;43.614;1.456;2022-11-03T05:35:59;15.30;99.90
15656;DHT22;7928;43.614;1.456;2022-11-03T05:38:29;15.30;99.90
15656;DHT22;7928;43.614;1.456;2022-11-03T05:40:58;15.30;99.90
15656;DHT22;7928;43.614;1.456;2022-11-03T05:43:34;15.40;99.90
15656;DHT22;7928;43.614;1.456;2022-11-03T05:46:02;15.40;99.90
15656;DHT22;7928;43.614;1.456;2022-11-03T05:48:33;15.40;99.90
15656;DHT22;7928;43.614;1.456;2022-11-03T05:51:09;15.40;99.90
15656;DHT22;7928;43.614;1.456;2022-11-03T05:53:41;15.40;99.90
15656;DHT22;7928;43.614;1.456;2022-11-03T05:56:14;15.40;99.90
15656;DHT22;7928;43.614;1.456;2022-11-03T05:58:42;15.40;99.90
15656;DHT22;7928;43.614;1.456;2022-11-03T06:01:12;15.40;99.90
15656;DHT22;7928;43.614;1.456;2022-11-03T06:03:44;15.30;99.90
15656;DHT22;7928;43.614;1.456;2022-11-03T06:06:15;15.30;99.90
15656;DHT22;7928;43.614;1.456;2022-11-03T06:08:44;15.30;99.90
15656;DHT22;7928;43.614;1.456;2022-11-03T06:11:18;15.40;99.90
15656;DHT22;7928;43.614;1.456;2022-11-03T06:13:47;15.30;99.90
15656;DHT22;7928;43.614;1.456;2022-11-03T06:16:29;15.40;99.90
15656;DHT22;7928;43.614;1.456;2022-11-03T06:18:59;15.40;99.90
15656;DHT22;7928;43.614;1.456;2022-11-03T06:21:27;15.40;99.90
15656;DHT22;7928;43.614;1.456;2022-11-03T06:23:54;15.40;99.90
15656;DHT22;7928;43.614;1.456;2022-11-03T06:26:24;15.40;99.90
15656;DHT22;7928;43.614;1.456;2022-11-03T06:28:52;15.40;99.90
15656;DHT22;7928;43.614;1.456;2022-11-03T06:31:21;15.40;99.90
15656;DHT22;7928;43.614;1.456;2022-11-03T06:33:49;15.40;99.90
15656;DHT22;7928;43.614;1.456;2022-11-03T06:36:20;15.40;99.90
15656;DHT22;7928;43.614;1.456;2022-11-03T06:38:51;15.50;99.90
15656;DHT22;7928;43.614;1.456;2022-11-03T06:41:22;15.50;99.90
15656;DHT22;7928;43.614;1.456;2022-11-03T06:43:51;15.50;99.90
15656;DHT22;7928;43.614;1.456;2022-11-03T06:46:20;15.50;99.90
15656;DHT22;7928;43.614;1.456;2022-11-03T06:48:48;15.50;99.90
15656;DHT22;7928;43.614;1.456;2022-11-03T06:51:21;15.50;99.90
15656;DHT22;7928;43.614;1.456;2022-11-03T06:53:49;15.50;99.90
15656;DHT22;7928;43.614;1.456;2022-11-03T06:56:20;15.50;99.90
15656;DHT22;7928;43.614;1.456;2022-11-03T06:58:48;15.50;99.90
15656;DHT22;7928;43.614;1.456;2022-11-03T07:01:18;15.50;99.90
15656;DHT22;7928;43.614;1.456;2022-11-03T07:03:48;15.50;99.90
15656;DHT22;7928;43.614;1.456;2022-11-03T07:06:20;15.50;99.90
15656;DHT22;7928;43.614;1.456;2022-11-03T07:08:51;15.50;99.90
15656;DHT22;7928;43.614;1.456;2022-11-03T07:11:20;15.50;99.90
15656;DHT22;7928;43.614;1.456;2022-11-03T07:13:48;15.60;99.90
15656;DHT22;7928;43.614;1.456;2022-11-03T07:16:28;15.60;99.90
15656;DHT22;7928;43.614;1.456;2022-11-03T07:18:59;15.60;99.90
15656;DHT22;7928;43.614;1.456;2022-11-03T07:21:33;15.80;99.90
15656;DHT22;7928;43.614;1.456;2022-11-03T07:24:03;15.80;99.90
15656;DHT22;7928;43.614;1.456;2022-11-03T07:26:32;15.80;99.90
15656;DHT22;7928;43.614;1.456;2022-11-03T07:28:59;16.00;99.90
15656;DHT22;7928;43.614;1.456;2022-11-03T07:31:27;15.90;99.90
15656;DHT22;7928;43.614;1.456;2022-11-03T07:33:57;15.90;99.90
15656;DHT22;7928;43.614;1.456;2022-11-03T07:36:29;15.90;99.90
15656;DHT22;7928;43.614;1.456;2022-11-03T07:38:59;15.90;99.90
15656;DHT22;7928;43.614;1.456;2022-11-03T07:41:28;15.90;99.90
15656;DHT22;7928;43.614;1.456;2022-11-03T07:43:58;15.90;99.90
15656;DHT22;7928;43.614;1.456;2022-11-03T07:46:26;15.90;99.90
15656;DHT22;7928;43.614;1.456;2022-11-03T07:48:55;16.00;99.90
15656;DHT22;7928;43.614;1.456;2022-11-03T07:51:24;16.00;99.90
15656;DHT22;7928;43.614;1.456;2022-11-03T07:53:55;16.00;99.90
15656;DHT22;7928;43.614;1.456;2022-11-03T07:56:24;16.00;99.90
15656;DHT22;7928;43.614;1.456;2022-11-03T07:58:55;16.00;99.90
15656;DHT22;7928;43.614;1.456;2022-11-03T08:01:26;16.00;99.90
15656;DHT22;7928;43.614;1.456;2022-11-03T08:03:56;16.10;99.90
15656;DHT22;7928;43.614;1.456;2022-11-03T08:06:24;16.10;99.90
15656;DHT22;7928;43.614;1.456;2022-11-03T08:08:53;16.10;99.90
15656;DHT22;7928;43.614;1.456;2022-11-03T08:11:20;16.10;99.90
15656;DHT22;7928;43.614;1.456;2022-11-03T08:13:48;16.10;99.90
15656;DHT22;7928;43.614;1.456;2022-11-03T08:16:15;16.10;99.90
15656;DHT22;7928;43.614;1.456;2022-11-03T08:18:42;16.10;99.90
15656;DHT22;7928;43.614;1.456;2022-11-03T08:21:10;16.10;99.90
15656;DHT22;7928;43.614;1.456;2022-11-03T08:23:37;16.10;99.90
15656;DHT22;7928;43.614;1.456;2022-11-03T08:26:05;16.20;99.90
15656;DHT22;7928;43.614;1.456;2022-11-03T08:28:33;16.20;99.90
15656;DHT22;7928;43.614;1.456;2022-11-03T08:31:00;16.30;99.90
15656;DHT22;7928;43.614;1.456;2022-11-03T08:33:30;16.30;99.90
15656;DHT22;7928;43.614;1.456;2022-11-03T08:35:57;16.40;99.90
15656;DHT22;7928;43.614;1.456;2022-11-03T08:38:24;16.40;99.90
15656;DHT22;7928;43.614;1.456;2022-11-03T08:40:52;16.40;99.90
15656;DHT22;7928;43.614;1.456;2022-11-03T08:43:20;16.40;99.90
15656;DHT22;7928;43.614;1.456;2022-11-03T08:45:47;16.50;99.90
15656;DHT22;7928;43.614;1.456;2022-11-03T08:48:18;16.50;99.90
15656;DHT22;7928;43.614;1.456;2022-11-03T08:50:45;16.60;99.90
15656;DHT22;7928;43.614;1.456;2022-11-03T08:53:13;16.60;99.90
15656;DHT22;7928;43.614;1.456;2022-11-03T08:55:40;16.70;99.90
15656;DHT22;7928;43.614;1.456;2022-11-03T08:58:07;16.70;99.90
15656;DHT22;7928;43.614;1.456;2022-11-03T09:00:36;16.70;99.90
15656;DHT22;7928;43.614;1.456;2022-11-03T09:03:03;16.70;99.90
15656;DHT22;7928;43.614;1.456;2022-11-03T09:05:30;16.80;99.90
15656;DHT22;7928;43.614;1.456;2022-11-03T09:07:57;16.80;99.90
15656;DHT22;7928;43.614;1.456;2022-11-03T09:10:24;16.90;99.90
15656;DHT22;7928;43.614;1.456;2022-11-03T09:12:52;16.90;99.90
15656;DHT22;7928;43.614;1.456;2022-11-03T09:15:19;16.90;99.90
15656;DHT22;7928;43.614;1.456;2022-11-03T09:17:47;16.90;99.90
15656;DHT22;7928;43.614;1.456;2022-11-03T09:20:14;16.90;99.90
15656;DHT22;7928;43.614;1.456;2022-11-03T09:22:41;16.90;99.90
15656;DHT22;7928;43.614;1.456;2022-11-03T09:25:09;16.90;99.90
15656;DHT22;7928;43.614;1.456;2022-11-03T09:27:36;17.00;99.90
15656;DHT22;7928;43.614;1.456;2022-11-03T09:30:03;17.00;99.90
15656;DHT22;7928;43.614;1.456;2022-11-03T09:32:30;17.10;99.90
15656;DHT22;7928;43.614;1.456;2022-11-03T09:34:59;17.10;99.90
15656;DHT22;7928;43.614;1.456;2022-11-03T09:37:26;17.20;99.90
15656;DHT22;7928;43.614;1.456;2022-11-03T09:39:53;17.30;99.90
15656;DHT22;7928;43.614;1.456;2022-11-03T09:42:21;17.50;99.90
15656;DHT22;7928;43.614;1.456;2022-11-03T09:44:48;17.70;99.90
15656;DHT22;7928;43.614;1.456;2022-11-03T09:47:22;18.00;99.90
15656;DHT22;7928;43.614;1.456;2022-11-03T09:49:50;18.10;99.90
15656;DHT22;7928;43.614;1.456;2022-11-03T09:52:20;18.10;99.90
15656;DHT22;7928;43.614;1.456;2022-11-03T09:54:50;18.00;99.90
15656;DHT22;7928;43.614;1.456;2022-11-03T09:57:20;17.80;99.90
15656;DHT22;7928;43.614;1.456;2022-11-03T09:59:49;17.70;99.90
15656;DHT22;7928;43.614;1.456;2022-11-03T10:02:21;17.70;99.90
15656;DHT22;7928;43.614;1.456;2022-11-03T10:04:51;17.60;99.90
15656;DHT22;7928;43.614;1.456;2022-11-03T10:07:20;17.60;99.90
15656;DHT22;7928;43.614;1.456;2022-11-03T10:09:50;17.60;99.90
15656;DHT22;7928;43.614;1.456;2022-11-03T10:12:18;17.60;99.90
15656;DHT22;7928;43.614;1.456;2022-11-03T10:14:46;17.70;99.90
15656;DHT22;7928;43.614;1.456;2022-11-03T10:17:16;17.80;99.90
15656;DHT22;7928;43.614;1.456;2022-11-03T10:19:47;17.80;99.90
15656;DHT22;7928;43.614;1.456;2022-11-03T10:22:15;17.80;99.90
15656;DHT22;7928;43.614;1.456;2022-11-03T10:24:44;17.80;99.90
15656;DHT22;7928;43.614;1.456;2022-11-03T10:27:21;17.80;99.90
15656;DHT22;7928;43.614;1.456;2022-11-03T10:30:05;17.80;99.90
15656;DHT22;7928;43.614;1.456;2022-11-03T10:32:33;17.70;99.90
15656;DHT22;7928;43.614;1.456;2022-11-03T10:35:01;17.70;99.90
15656;DHT22;7928;43.614;1.456;2022-11-03T10:37:29;17.70;99.90
15656;DHT22;7928;43.614;1.456;2022-11-03T10:39:58;17.70;99.90
15656;DHT22;7928;43.614;1.456;2022-11-03T10:42:26;17.70;99.90
15656;DHT22;7928;43.614;1.456;2022-11-03T10:45:09;17.70;99.90
15656;DHT22;7928;43.614;1.456;2022-11-03T10:47:36;17.80;99.90
15656;DHT22;7928;43.614;1.456;2022-11-03T10:50:20;17.80;99.90
15656;DHT22;7928;43.614;1.456;2022-11-03T10:52:48;17.90;99.90
15656;DHT22;7928;43.614;1.456;2022-11-03T10:55:17;17.90;99.90
15656;DHT22;7928;43.614;1.456;2022-11-03T10:57:45;17.90;99.90
15656;DHT22;7928;43.614;1.456;2022-11-03T11:00:14;18.00;99.90
15656;DHT22;7928;43.614;1.456;2022-11-03T11:02:42;18.10;99.90
15656;DHT22;7928;43.614;1.456;2022-11-03T11:05:13;18.20;99.90
15656;DHT22;7928;43.614;1.456;2022-11-03T11:07:43;18.20;99.90
15656;DHT22;7928;43.614;1.456;2022-11-03T11:10:13;18.20;99.90
15656;DHT22;7928;43.614;1.456;2022-11-03T11:13:02;18.20;99.90
15656;DHT22;7928;43.614;1.456;2022-11-03T11:15:38;18.10;99.90
15656;DHT22;7928;43.614;1.456;2022-11-03T11:18:06;18.20;99.90
15656;DHT22;7928;43.614;1.456;2022-11-03T11:20:35;18.10;99.90
15656;DHT22;7928;43.614;1.456;2022-11-03T11:26:31;18.20;99.90
15656;DHT22;7928;43.614;1.456;2022-11-03T11:29:34;18.20;99.90
15656;DHT22;7928;43.614;1.456;2022-11-03T11:35:17;18.20;99.90
15656;DHT22;7928;43.614;1.456;2022-11-03T11:37:44;18.20;99.90
15656;DHT22;7928;43.614;1.456;2022-11-03T11:40:13;18.20;99.90
15656;DHT22;7928;43.614;1.456;2022-11-03T11:43:26;18.20;99.90
15656;DHT22;7928;43.614;1.456;2022-11-03T11:46:32;18.10;99.90
15656;DHT22;7928;43.614;1.456;2022-11-03T11:49:16;18.10;99.90
15656;DHT22;7928;43.614;1.456;2022-11-03T11:51:43;18.00;99.90
15656;DHT22;7928;43.614;1.456;2022-11-03T11:54:15;18.10;99.90
15656;DHT22;7928;43.614;1.456;2022-11-03T11:56:44;18.10;99.90
15656;DHT22;7928;43.614;1.456;2022-11-03T11:59:16;18.10;99.90
15656;DHT22;7928;43.614;1.456;2022-11-03T12:01:48;18.10;99.90
15656;DHT22;7928;43.614;1.456;2022-11-03T12:04:19;18.20;99.90
15656;DHT22;7928;43.614;1.456;2022-11-03T12:06:47;18.20;99.90
15656;DHT22;7928;43.614;1.456;2022-11-03T12:09:16;18.30;99.90
15656;DHT22;7928;43.614;1.456;2022-11-03T12:11:45;18.30;99.90
15656;DHT22;7928;43.614;1.456;2022-11-03T12:14:31;18.30;99.90
15656;DHT22;7928;43.614;1.456;2022-11-03T12:17:29;18.30;99.90
15656;DHT22;7928;43.614;1.456;2022-11-03T12:19:57;18.30;99.90
15656;DHT22;7928;43.614;1.456;2022-11-03T12:22:40;18.40;99.90
15656;DHT22;7928;43.614;1.456;2022-11-03T12:25:32;18.50;99.90
15656;DHT22;7928;43.614;1.456;2022-11-03T12:28:00;18.60;99.90
15656;DHT22;7928;43.614;1.456;2022-11-03T12:30:27;18.80;99.90
15656;DHT22;7928;43.614;1.456;2022-11-03T12:32:56;18.80;99.90
15656;DHT22;7928;43.614;1.456;2022-11-03T12:35:23;18.90;99.90
15656;DHT22;7928;43.614;1.456;2022-11-03T12:37:50;18.90;99.90
15656;DHT22;7928;43.614;1.456;2022-11-03T12:40:17;18.90;99.90
15656;DHT22;7928;43.614;1.456;2022-11-03T12:42:44;18.90;99.90
15656;DHT22;7928;43.614;1.456;2022-11-03T12:45:11;19.00;99.90
15656;DHT22;7928;43.614;1.456;2022-11-03T12:47:39;19.00;99.90
15656;DHT22;7928;43.614;1.456;2022-11-03T12:50:08;19.20;99.90
15656;DHT22;7928;43.614;1.456;2022-11-03T12:52:35;19.30;99.90
15656;DHT22;7928;43.614;1.456;2022-11-03T12:55:03;19.40;99.90
15656;DHT22;7928;43.614;1.456;2022-11-03T12:57:30;19.40;99.90
15656;DHT22;7928;43.614;1.456;2022-11-03T12:59:57;19.40;99.90
15656;DHT22;7928;43.614;1.456;2022-11-03T13:02:24;19.50;99.90
15656;DHT22;7928;43.614;1.456;2022-11-03T13:04:51;19.40;99.90
15656;DHT22;7928;43.614;1.456;2022-11-03T13:07:19;19.50;99.90
15656;DHT22;7928;43.614;1.456;2022-11-03T13:09:46;19.70;99.70
15656;DHT22;7928;43.614;1.456;2022-11-03T13:12:13;20.10;94.50
15656;DHT22;7928;43.614;1.456;2022-11-03T13:15:00;20.70;72.80
15656;DHT22;7928;43.614;1.456;2022-11-03T13:17:28;21.80;31.00
15656;DHT22;7928;43.614;1.456;2022-11-03T13:19:55;22.80;1.00
15656;DHT22;7928;43.614;1.456;2022-11-03T13:22:24;24.00;1.00
15656;DHT22;7928;43.614;1.456;2022-11-03T13:24:51;25.10;1.00
15656;DHT22;7928;43.614;1.456;2022-11-03T13:27:19;26.10;1.00
15656;DHT22;7928;43.614;1.456;2022-11-03T13:29:46;26.70;1.00
15656;DHT22;7928;43.614;1.456;2022-11-03T13:32:13;25.60;1.00
15656;DHT22;7928;43.614;1.456;2022-11-03T13:34:40;25.50;1.00
15656;DHT22;7928;43.614;1.456;2022-11-03T13:37:07;25.60;1.00
15656;DHT22;7928;43.614;1.456;2022-11-03T13:39:35;26.80;1.00
15656;DHT22;7928;43.614;1.456;2022-11-03T13:42:02;26.30;1.00
15656;DHT22;7928;43.614;1.456;2022-11-03T13:44:29;25.90;1.00
15656;DHT22;7928;43.614;1.456;2022-11-03T13:46:56;25.10;1.00
15656;DHT22;7928;43.614;1.456;2022-11-03T13:49:23;25.70;1.00
15656;DHT22;7928;43.614;1.456;2022-11-03T13:51:50;26.40;1.00
15656;DHT22;7928;43.614;1.456;2022-11-03T13:54:17;27.20;1.00
15656;DHT22;7928;43.614;1.456;2022-11-03T13:56:46;28.20;1.00
15656;DHT22;7928;43.614;1.456;2022-11-03T13:59:13;29.00;99.30
15656;DHT22;7928;43.614;1.456;2022-11-03T14:01:40;27.70;99.90
15656;DHT22;7928;43.614;1.456;2022-11-03T14:04:07;29.10;99.60
15656;DHT22;7928;43.614;1.456;2022-11-03T14:06:34;30.20;99.90
15656;DHT22;7928;43.614;1.456;2022-11-03T14:09:01;31.80;1.00
15656;DHT22;7928;43.614;1.456;2022-11-03T14:11:28;31.70;1.00
15656;DHT22;7928;43.614;1.456;2022-11-03T14:14:14;33.10;1.00
15656;DHT22;7928;43.614;1.456;2022-11-03T14:16:41;33.90;1.00
15656;DHT22;7928;43.614;1.456;2022-11-03T14:19:08;33.10;1.00
15656;DHT22;7928;43.614;1.456;2022-11-03T14:21:35;32.90;99.90
15656;DHT22;7928;43.614;1.456;2022-11-03T14:24:05;31.80;99.90
15656;DHT22;7928;43.614;1.456;2022-11-03T14:26:32;30.40;1.00
15656;DHT22;7928;43.614;1.456;2022-11-03T14:28:59;31.60;1.00
15656;DHT22;7928;43.614;1.456;2022-11-03T14:31:28;33.00;99.90
15656;DHT22;7928;43.614;1.456;2022-11-03T14:33:54;32.40;1.00
15656;DHT22;7928;43.614;1.456;2022-11-03T14:36:21;33.30;46.10
15656;DHT22;7928;43.614;1.456;2022-11-03T14:38:49;33.30;1.00
15656;DHT22;7928;43.614;1.456;2022-11-03T14:41:16;31.60;1.00
15656;DHT22;7928;43.614;1.456;2022-11-03T14:44:00;30.60;1.00
15656;DHT22;7928;43.614;1.456;2022-11-03T14:46:29;31.30;1.00
15656;DHT22;7928;43.614;1.456;2022-11-03T14:48:56;29.20;99.90
15656;DHT22;7928;43.614;1.456;2022-11-03T14:51:24;27.10;99.90
15656;DHT22;7928;43.614;1.456;2022-11-03T14:53:51;25.50;1.00
15656;DHT22;7928;43.614;1.456;2022-11-03T14:56:18;24.40;1.00
15656;DHT22;7928;43.614;1.456;2022-11-03T14:58:45;23.80;1.00
15656;DHT22;7928;43.614;1.456;2022-11-03T15:01:13;23.30;1.00
15656;DHT22;7928;43.614;1.456;2022-11-03T15:03:42;22.80;1.00
15656;DHT22;7928;43.614;1.456;2022-11-03T15:06:09;22.60;1.00
15656;DHT22;7928;43.614;1.456;2022-11-03T15:08:37;22.30;1.00
15656;DHT22;7928;43.614;1.456;2022-11-03T15:11:04;22.00;1.00
15656;DHT22;7928;43.614;1.456;2022-11-03T15:13:32;21.70;1.00
15656;DHT22;7928;43.614;1.456;2022-11-03T15:15:59;21.70;1.00
15656;DHT22;7928;43.614;1.456;2022-11-03T15:18:26;21.50;1.00
15656;DHT22;7928;43.614;1.456;2022-11-03T15:20:55;21.40;1.00
15656;DHT22;7928;43.614;1.456;2022-11-03T15:23:22;21.30;1.00
15656;DHT22;7928;43.614;1.456;2022-11-03T15:25:49;21.20;6.10
15656;DHT22;7928;43.614;1.456;2022-11-03T15:28:16;21.10;14.40
15656;DHT22;7928;43.614;1.456;2022-11-03T15:30:43;20.90;21.70
15656;DHT22;7928;43.614;1.456;2022-11-03T15:33:10;20.90;48.20
15656;DHT22;7928;43.614;1.456;2022-11-03T15:35:37;20.60;49.90
15656;DHT22;7928;43.614;1.456;2022-11-03T15:38:05;20.40;88.70
15656;DHT22;7928;43.614;1.456;2022-11-03T15:40:32;19.20;97.80
15656;DHT22;7928;43.614;1.456;2022-11-03T15:42:59;18.30;99.90
15656;DHT22;7928;43.614;1.456;2022-11-03T15:45:26;17.70;99.90
15656;DHT22;7928;43.614;1.456;2022-11-03T15:47:53;17.30;99.90
15656;DHT22;7928;43.614;1.456;2022-11-03T15:50:20;17.10;99.90
15656;DHT22;7928;43.614;1.456;2022-11-03T15:52:47;17.00;99.90
15656;DHT22;7928;43.614;1.456;2022-11-03T15:55:16;16.90;99.90
15656;DHT22;7928;43.614;1.456;2022-11-03T15:57:43;16.90;99.90
15656;DHT22;7928;43.614;1.456;2022-11-03T16:00:11;16.70;99.90
15656;DHT22;7928;43.614;1.456;2022-11-03T16:02:38;16.60;99.90
15656;DHT22;7928;43.614;1.456;2022-11-03T16:05:06;16.50;99.90
15656;DHT22;7928;43.614;1.456;2022-11-03T16:07:33;16.50;99.90
15656;DHT22;7928;43.614;1.456;2022-11-03T16:10:00;16.50;99.90
15656;DHT22;7928;43.614;1.456;2022-11-03T16:12:29;16.50;99.90